New Sun — SB5055 — position and weather

sailwx.info

Track history (hours):
 
Tides and Currents Weather Stations Pressure Air Temp Water Temp Dewpoint Dewpoint Depression Visibility Wind Speed Wind Dir Waves Ship Positions

New Sun

Last reported at 2017-Oct-23 16:48 UTC. Time now 2018-Jan-19 11:53 UTC.
Position N 37°07' W 008°40'.
Warning: this ship's position is months out of date.

Length 10 m.

Type: Sailing vessel. MMSI: 265561630.

Date/timePositionNaut miles runAvg speedWind from/ knotsBaromVisibWave heightAir tempDewpointWater temp
2017-Oct-23 16:48N 37°07' W 008°40'0 0.0
2017-Oct-23 16:24N 37°07' W 008°40'0 0.5
2017-Oct-23 16:00N 37°06' W 008°40'2 4.5
2017-Oct-23 15:28N 37°06' W 008°38'2 5.1
2017-Oct-23 14:59N 37°05' W 008°34'2 5.2
2017-Oct-23 14:30N 37°05' W 008°31'3 5.1
2017-Oct-23 13:59N 37°05' W 008°28'1 1.9
2017-Oct-23 13:28N 37°05' W 008°27'2 5.0
2017-Oct-23 13:00N 37°06' W 008°30'2 3.4
2017-Oct-23 12:28N 37°07' W 008°31'0 0.0
2017-Oct-23 11:58N 37°07' W 008°31'0 0.0
2017-Oct-23 11:27N 37°07' W 008°31'0 0.0
2017-Oct-23 10:57N 37°07' W 008°31'  
Track history (hours):
 
Tides and Currents Weather Stations Pressure Air Temp Water Temp Dewpoint Dewpoint Depression Visibility Wind Speed Wind Dir Waves Ship Positions

New Sun

Last reported at 2017-Oct-23 16:48 UTC. Time now 2018-Jan-19 11:53 UTC.
Position N 37°07' W 008°40'.
Warning: this ship's position is months out of date.

Length 10 m.

Type: Sailing vessel. MMSI: 265561630.

Date/timePositionNaut miles runAvg speedWind from/ knotsBaromVisibWave heightAir tempDewpointWater temp
2017-Oct-23 16:48N 37°07' W 008°40'0 0.0
2017-Oct-23 16:24N 37°07' W 008°40'0 0.5
2017-Oct-23 16:00N 37°06' W 008°40'2 4.5
2017-Oct-23 15:28N 37°06' W 008°38'2 5.1
2017-Oct-23 14:59N 37°05' W 008°34'2 5.2
2017-Oct-23 14:30N 37°05' W 008°31'3 5.1
2017-Oct-23 13:59N 37°05' W 008°28'1 1.9
2017-Oct-23 13:28N 37°05' W 008°27'2 5.0
2017-Oct-23 13:00N 37°06' W 008°30'2 3.4
2017-Oct-23 12:28N 37°07' W 008°31'0 0.0
2017-Oct-23 11:58N 37°07' W 008°31'0 0.0
2017-Oct-23 11:27N 37°07' W 008°31'0 0.0
2017-Oct-23 10:57N 37°07' W 008°31'  

Dump ship's entire track history